sensor_id;sensor_type;location;lat;lon;timestamp;temperature;humidity
14585;DHT22;7379;51.506;11.876;2024-03-02T00:01:14;7.70;81.00
14585;DHT22;7379;51.506;11.876;2024-03-02T00:03:43;7.70;81.00
14585;DHT22;7379;51.506;11.876;2024-03-02T00:06:10;7.70;81.00
14585;DHT22;7379;51.506;11.876;2024-03-02T00:08:37;7.70;81.00
14585;DHT22;7379;51.506;11.876;2024-03-02T00:11:04;7.70;81.00
14585;DHT22;7379;51.506;11.876;2024-03-02T00:13:32;7.70;81.00
14585;DHT22;7379;51.506;11.876;2024-03-02T00:16:00;7.70;81.80
14585;DHT22;7379;51.506;11.876;2024-03-02T00:18:31;7.70;81.10
14585;DHT22;7379;51.506;11.876;2024-03-02T00:21:00;7.70;81.10
14585;DHT22;7379;51.506;11.876;2024-03-02T00:23:30;7.70;81.10
14585;DHT22;7379;51.506;11.876;2024-03-02T00:25:58;7.70;81.10
14585;DHT22;7379;51.506;11.876;2024-03-02T00:28:26;7.70;81.10
14585;DHT22;7379;51.506;11.876;2024-03-02T00:30:58;7.70;81.10
14585;DHT22;7379;51.506;11.876;2024-03-02T00:33:27;7.70;81.10
14585;DHT22;7379;51.506;11.876;2024-03-02T00:35:56;7.70;81.10
14585;DHT22;7379;51.506;11.876;2024-03-02T00:38:26;7.70;81.10
14585;DHT22;7379;51.506;11.876;2024-03-02T00:40:54;7.70;81.10
14585;DHT22;7379;51.506;11.876;2024-03-02T00:43:42;7.70;81.10
14585;DHT22;7379;51.506;11.876;2024-03-02T00:46:11;7.70;81.10
14585;DHT22;7379;51.506;11.876;2024-03-02T00:48:38;7.70;81.10
14585;DHT22;7379;51.506;11.876;2024-03-02T00:51:04;7.70;81.10
14585;DHT22;7379;51.506;11.876;2024-03-02T00:53:33;7.70;81.10
14585;DHT22;7379;51.506;11.876;2024-03-02T00:56:01;7.70;81.10
14585;DHT22;7379;51.506;11.876;2024-03-02T00:58:28;7.60;81.10
14585;DHT22;7379;51.506;11.876;2024-03-02T01:00:55;7.60;81.10
14585;DHT22;7379;51.506;11.876;2024-03-02T01:03:22;7.60;81.10
14585;DHT22;7379;51.506;11.876;2024-03-02T01:05:48;7.70;81.20
14585;DHT22;7379;51.506;11.876;2024-03-02T01:08:15;7.60;81.10
14585;DHT22;7379;51.506;11.876;2024-03-02T01:10:43;7.60;81.10
14585;DHT22;7379;51.506;11.876;2024-03-02T01:13:10;7.60;81.10
14585;DHT22;7379;51.506;11.876;2024-03-02T01:15:37;7.60;81.10
14585;DHT22;7379;51.506;11.876;2024-03-02T01:18:04;7.60;81.10
14585;DHT22;7379;51.506;11.876;2024-03-02T01:20:31;7.60;81.20
14585;DHT22;7379;51.506;11.876;2024-03-02T01:22:58;7.60;81.20
14585;DHT22;7379;51.506;11.876;2024-03-02T01:25:24;7.60;81.20
14585;DHT22;7379;51.506;11.876;2024-03-02T01:27:52;7.60;81.20
14585;DHT22;7379;51.506;11.876;2024-03-02T01:30:19;7.60;81.20
14585;DHT22;7379;51.506;11.876;2024-03-02T01:32:46;7.60;81.20
14585;DHT22;7379;51.506;11.876;2024-03-02T01:35:13;7.60;81.20
14585;DHT22;7379;51.506;11.876;2024-03-02T01:37:41;7.60;81.20
14585;DHT22;7379;51.506;11.876;2024-03-02T01:40:08;7.60;81.20
14585;DHT22;7379;51.506;11.876;2024-03-02T01:42:36;7.60;81.20
14585;DHT22;7379;51.506;11.876;2024-03-02T01:45:05;7.60;81.30
14585;DHT22;7379;51.506;11.876;2024-03-02T01:47:32;7.60;81.20
14585;DHT22;7379;51.506;11.876;2024-03-02T01:49:59;7.60;81.20
14585;DHT22;7379;51.506;11.876;2024-03-02T01:52:27;7.60;81.30
14585;DHT22;7379;51.506;11.876;2024-03-02T01:54:54;7.60;81.30
14585;DHT22;7379;51.506;11.876;2024-03-02T01:57:21;7.50;81.20
14585;DHT22;7379;51.506;11.876;2024-03-02T01:59:48;7.50;81.20
14585;DHT22;7379;51.506;11.876;2024-03-02T02:02:17;7.50;81.20
14585;DHT22;7379;51.506;11.876;2024-03-02T02:04:44;7.50;81.20
14585;DHT22;7379;51.506;11.876;2024-03-02T02:07:11;7.50;81.10
14585;DHT22;7379;51.506;11.876;2024-03-02T02:09:39;7.50;81.20
14585;DHT22;7379;51.506;11.876;2024-03-02T02:12:06;7.50;81.20
14585;DHT22;7379;51.506;11.876;2024-03-02T02:14:33;7.60;81.30
14585;DHT22;7379;51.506;11.876;2024-03-02T02:17:00;7.50;81.20
14585;DHT22;7379;51.506;11.876;2024-03-02T02:19:28;7.50;81.20
14585;DHT22;7379;51.506;11.876;2024-03-02T02:21:56;7.50;81.20
14585;DHT22;7379;51.506;11.876;2024-03-02T02:24:23;7.50;81.20
14585;DHT22;7379;51.506;11.876;2024-03-02T02:26:50;7.50;81.30
14585;DHT22;7379;51.506;11.876;2024-03-02T02:29:16;7.50;81.20
14585;DHT22;7379;51.506;11.876;2024-03-02T02:31:43;7.50;81.30
14585;DHT22;7379;51.506;11.876;2024-03-02T02:34:10;7.50;81.30
14585;DHT22;7379;51.506;11.876;2024-03-02T02:36:38;7.50;81.30
14585;DHT22;7379;51.506;11.876;2024-03-02T02:39:09;7.50;81.30
14585;DHT22;7379;51.506;11.876;2024-03-02T02:41:37;7.50;81.30
14585;DHT22;7379;51.506;11.876;2024-03-02T02:44:04;7.50;81.30
14585;DHT22;7379;51.506;11.876;2024-03-02T02:46:31;7.50;81.30
14585;DHT22;7379;51.506;11.876;2024-03-02T02:48:57;7.50;81.30
14585;DHT22;7379;51.506;11.876;2024-03-02T02:51:24;7.50;81.30
14585;DHT22;7379;51.506;11.876;2024-03-02T02:53:51;7.50;81.30
14585;DHT22;7379;51.506;11.876;2024-03-02T02:56:19;7.50;81.30
14585;DHT22;7379;51.506;11.876;2024-03-02T02:58:46;7.50;81.30
14585;DHT22;7379;51.506;11.876;2024-03-02T03:01:13;7.50;81.30
14585;DHT22;7379;51.506;11.876;2024-03-02T03:03:40;7.50;81.30
14585;DHT22;7379;51.506;11.876;2024-03-02T03:06:06;7.50;81.30
14585;DHT22;7379;51.506;11.876;2024-03-02T03:08:33;7.50;81.30
14585;DHT22;7379;51.506;11.876;2024-03-02T03:11:00;7.50;81.40
14585;DHT22;7379;51.506;11.876;2024-03-02T03:13:28;7.50;81.30
14585;DHT22;7379;51.506;11.876;2024-03-02T03:15:55;7.50;81.40
14585;DHT22;7379;51.506;11.876;2024-03-02T03:18:21;7.50;81.30
14585;DHT22;7379;51.506;11.876;2024-03-02T03:20:48;7.50;81.30
14585;DHT22;7379;51.506;11.876;2024-03-02T03:23:15;7.40;81.30
14585;DHT22;7379;51.506;11.876;2024-03-02T03:25:42;7.40;81.30
14585;DHT22;7379;51.506;11.876;2024-03-02T03:28:09;7.40;81.30
14585;DHT22;7379;51.506;11.876;2024-03-02T03:30:38;7.50;81.40
14585;DHT22;7379;51.506;11.876;2024-03-02T03:33:05;7.40;81.30
14585;DHT22;7379;51.506;11.876;2024-03-02T03:35:32;7.50;81.40
14585;DHT22;7379;51.506;11.876;2024-03-02T03:37:59;7.40;81.30
14585;DHT22;7379;51.506;11.876;2024-03-02T03:40:26;7.40;81.30
14585;DHT22;7379;51.506;11.876;2024-03-02T03:42:53;7.40;81.40
14585;DHT22;7379;51.506;11.876;2024-03-02T03:45:21;7.40;81.30
14585;DHT22;7379;51.506;11.876;2024-03-02T03:47:49;7.40;81.30
14585;DHT22;7379;51.506;11.876;2024-03-02T03:50:16;7.40;81.30
14585;DHT22;7379;51.506;11.876;2024-03-02T03:52:43;7.40;81.30
14585;DHT22;7379;51.506;11.876;2024-03-02T03:55:09;7.40;81.30
14585;DHT22;7379;51.506;11.876;2024-03-02T03:57:36;7.40;81.30
14585;DHT22;7379;51.506;11.876;2024-03-02T04:00:03;7.40;81.30
14585;DHT22;7379;51.506;11.876;2024-03-02T04:02:30;7.40;81.30
14585;DHT22;7379;51.506;11.876;2024-03-02T04:04:58;7.40;81.30
14585;DHT22;7379;51.506;11.876;2024-03-02T04:07:25;7.40;81.30
14585;DHT22;7379;51.506;11.876;2024-03-02T04:09:52;7.40;81.40
14585;DHT22;7379;51.506;11.876;2024-03-02T04:12:18;7.40;81.30
14585;DHT22;7379;51.506;11.876;2024-03-02T04:14:45;7.40;81.40
14585;DHT22;7379;51.506;11.876;2024-03-02T04:17:12;7.40;81.40
14585;DHT22;7379;51.506;11.876;2024-03-02T04:19:39;7.40;81.30
14585;DHT22;7379;51.506;11.876;2024-03-02T04:22:07;7.40;81.40
14585;DHT22;7379;51.506;11.876;2024-03-02T04:24:33;7.40;81.30
14585;DHT22;7379;51.506;11.876;2024-03-02T04:27:00;7.40;81.30
14585;DHT22;7379;51.506;11.876;2024-03-02T04:29:27;7.40;81.40
14585;DHT22;7379;51.506;11.876;2024-03-02T04:31:54;7.40;81.40
14585;DHT22;7379;51.506;11.876;2024-03-02T04:34:21;7.40;81.30
14585;DHT22;7379;51.506;11.876;2024-03-02T04:36:48;7.40;81.40
14585;DHT22;7379;51.506;11.876;2024-03-02T04:39:16;7.40;81.30
14585;DHT22;7379;51.506;11.876;2024-03-02T04:41:43;7.40;81.30
14585;DHT22;7379;51.506;11.876;2024-03-02T04:44:10;7.40;81.30
14585;DHT22;7379;51.506;11.876;2024-03-02T04:46:36;7.40;81.30
14585;DHT22;7379;51.506;11.876;2024-03-02T04:49:03;7.40;81.30
14585;DHT22;7379;51.506;11.876;2024-03-02T04:51:30;7.40;81.30
14585;DHT22;7379;51.506;11.876;2024-03-02T04:53:57;7.40;81.30
14585;DHT22;7379;51.506;11.876;2024-03-02T04:56:25;7.40;81.30
14585;DHT22;7379;51.506;11.876;2024-03-02T04:59:09;7.40;81.30
14585;DHT22;7379;51.506;11.876;2024-03-02T05:01:35;7.30;81.30
14585;DHT22;7379;51.506;11.876;2024-03-02T05:04:02;7.30;81.30
14585;DHT22;7379;51.506;11.876;2024-03-02T05:06:29;7.30;81.30
14585;DHT22;7379;51.506;11.876;2024-03-02T05:08:56;7.40;81.40
14585;DHT22;7379;51.506;11.876;2024-03-02T05:11:24;7.30;81.30
14585;DHT22;7379;51.506;11.876;2024-03-02T05:14:08;7.30;81.30
14585;DHT22;7379;51.506;11.876;2024-03-02T05:16:35;7.40;81.40
14585;DHT22;7379;51.506;11.876;2024-03-02T05:19:03;7.30;81.30
14585;DHT22;7379;51.506;11.876;2024-03-02T05:21:32;7.40;81.40
14585;DHT22;7379;51.506;11.876;2024-03-02T05:23:59;7.40;81.40
14585;DHT22;7379;51.506;11.876;2024-03-02T05:26:27;7.30;81.30
14585;DHT22;7379;51.506;11.876;2024-03-02T05:28:53;7.40;81.40
14585;DHT22;7379;51.506;11.876;2024-03-02T05:31:20;7.40;81.40
14585;DHT22;7379;51.506;11.876;2024-03-02T05:33:47;7.30;81.30
14585;DHT22;7379;51.506;11.876;2024-03-02T05:36:13;7.40;81.40
14585;DHT22;7379;51.506;11.876;2024-03-02T05:38:40;7.30;81.30
14585;DHT22;7379;51.506;11.876;2024-03-02T05:41:08;7.30;81.30
14585;DHT22;7379;51.506;11.876;2024-03-02T05:43:36;7.30;81.40
14585;DHT22;7379;51.506;11.876;2024-03-02T05:46:03;7.30;81.30
14585;DHT22;7379;51.506;11.876;2024-03-02T05:48:30;7.30;81.30
14585;DHT22;7379;51.506;11.876;2024-03-02T05:50:56;7.30;81.30
14585;DHT22;7379;51.506;11.876;2024-03-02T05:53:23;7.30;81.40
14585;DHT22;7379;51.506;11.876;2024-03-02T05:55:50;7.30;81.40
14585;DHT22;7379;51.506;11.876;2024-03-02T05:58:19;7.30;81.40
14585;DHT22;7379;51.506;11.876;2024-03-02T06:00:58;7.30;81.40
14585;DHT22;7379;51.506;11.876;2024-03-02T06:03:24;7.30;81.40
14585;DHT22;7379;51.506;11.876;2024-03-02T06:05:51;7.30;81.40
14585;DHT22;7379;51.506;11.876;2024-03-02T06:08:18;7.30;81.40
14585;DHT22;7379;51.506;11.876;2024-03-02T06:10:45;7.30;81.40
14585;DHT22;7379;51.506;11.876;2024-03-02T06:13:12;7.30;81.40
14585;DHT22;7379;51.506;11.876;2024-03-02T06:15:38;7.30;81.40
14585;DHT22;7379;51.506;11.876;2024-03-02T06:18:07;7.30;81.40
14585;DHT22;7379;51.506;11.876;2024-03-02T06:20:33;7.30;81.40
14585;DHT22;7379;51.506;11.876;2024-03-02T06:23:00;7.30;81.40
14585;DHT22;7379;51.506;11.876;2024-03-02T06:25:27;7.30;81.40
14585;DHT22;7379;51.506;11.876;2024-03-02T06:27:54;7.30;81.40
14585;DHT22;7379;51.506;11.876;2024-03-02T06:30:20;7.30;81.40
14585;DHT22;7379;51.506;11.876;2024-03-02T06:32:47;7.30;81.40
14585;DHT22;7379;51.506;11.876;2024-03-02T06:35:15;7.30;81.40
14585;DHT22;7379;51.506;11.876;2024-03-02T06:37:42;7.30;81.40
14585;DHT22;7379;51.506;11.876;2024-03-02T06:40:09;7.30;81.40
14585;DHT22;7379;51.506;11.876;2024-03-02T06:42:36;7.30;81.40
14585;DHT22;7379;51.506;11.876;2024-03-02T06:45:03;7.30;81.40
14585;DHT22;7379;51.506;11.876;2024-03-02T06:47:30;7.30;81.40
14585;DHT22;7379;51.506;11.876;2024-03-02T06:49:57;7.30;81.50
14585;DHT22;7379;51.506;11.876;2024-03-02T06:52:25;7.30;81.50
14585;DHT22;7379;51.506;11.876;2024-03-02T06:54:52;7.30;81.50
14585;DHT22;7379;51.506;11.876;2024-03-02T06:57:18;7.30;81.50
14585;DHT22;7379;51.506;11.876;2024-03-02T06:59:46;7.30;81.50
14585;DHT22;7379;51.506;11.876;2024-03-02T07:02:14;7.30;81.50
14585;DHT22;7379;51.506;11.876;2024-03-02T07:04:40;7.40;81.60
14585;DHT22;7379;51.506;11.876;2024-03-02T07:07:07;7.40;81.60
14585;DHT22;7379;51.506;11.876;2024-03-02T07:09:35;7.30;81.50
14585;DHT22;7379;51.506;11.876;2024-03-02T07:12:02;7.30;81.50
14585;DHT22;7379;51.506;11.876;2024-03-02T07:14:29;7.30;81.50
14585;DHT22;7379;51.506;11.876;2024-03-02T07:17:09;7.40;81.60
14585;DHT22;7379;51.506;11.876;2024-03-02T07:19:38;7.40;81.60
14585;DHT22;7379;51.506;11.876;2024-03-02T07:22:06;7.40;81.60
14585;DHT22;7379;51.506;11.876;2024-03-02T07:24:40;7.40;81.60
14585;DHT22;7379;51.506;11.876;2024-03-02T07:27:07;7.40;81.60
14585;DHT22;7379;51.506;11.876;2024-03-02T07:29:34;7.40;81.70
14585;DHT22;7379;51.506;11.876;2024-03-02T07:32:01;7.40;81.70
14585;DHT22;7379;51.506;11.876;2024-03-02T07:34:27;7.40;81.70
14585;DHT22;7379;51.506;11.876;2024-03-02T07:36:54;7.40;81.80
14585;DHT22;7379;51.506;11.876;2024-03-02T07:39:21;7.40;81.70
14585;DHT22;7379;51.506;11.876;2024-03-02T07:41:50;7.40;81.70
14585;DHT22;7379;51.506;11.876;2024-03-02T07:44:17;7.40;81.80
14585;DHT22;7379;51.506;11.876;2024-03-02T07:46:45;7.40;81.80
14585;DHT22;7379;51.506;11.876;2024-03-02T07:49:13;7.40;81.80
14585;DHT22;7379;51.506;11.876;2024-03-02T07:51:40;7.40;81.90
14585;DHT22;7379;51.506;11.876;2024-03-02T07:54:07;7.40;81.90
14585;DHT22;7379;51.506;11.876;2024-03-02T07:56:34;7.40;81.90
14585;DHT22;7379;51.506;11.876;2024-03-02T07:59:02;7.40;82.00
14585;DHT22;7379;51.506;11.876;2024-03-02T08:01:29;7.40;82.00
14585;DHT22;7379;51.506;11.876;2024-03-02T08:03:57;7.40;82.10
14585;DHT22;7379;51.506;11.876;2024-03-02T08:06:24;7.40;82.20
14585;DHT22;7379;51.506;11.876;2024-03-02T08:08:53;7.40;82.30
14585;DHT22;7379;51.506;11.876;2024-03-02T08:11:20;7.50;83.00
14585;DHT22;7379;51.506;11.876;2024-03-02T08:13:47;7.50;82.70
14585;DHT22;7379;51.506;11.876;2024-03-02T08:16:15;7.50;82.70
14585;DHT22;7379;51.506;11.876;2024-03-02T08:18:45;7.50;82.80
14585;DHT22;7379;51.506;11.876;2024-03-02T08:21:12;7.50;83.10
14585;DHT22;7379;51.506;11.876;2024-03-02T08:23:39;7.50;83.10
14585;DHT22;7379;51.506;11.876;2024-03-02T08:26:07;7.50;83.20
14585;DHT22;7379;51.506;11.876;2024-03-02T08:28:34;7.50;82.90
14585;DHT22;7379;51.506;11.876;2024-03-02T08:31:02;7.50;82.90
14585;DHT22;7379;51.506;11.876;2024-03-02T08:33:30;7.50;82.70
14585;DHT22;7379;51.506;11.876;2024-03-02T08:35:57;7.60;82.80
14585;DHT22;7379;51.506;11.876;2024-03-02T08:38:24;7.60;82.80
14585;DHT22;7379;51.506;11.876;2024-03-02T08:40:51;7.60;82.80
14585;DHT22;7379;51.506;11.876;2024-03-02T08:43:18;7.70;82.90
14585;DHT22;7379;51.506;11.876;2024-03-02T08:45:45;7.70;82.80
14585;DHT22;7379;51.506;11.876;2024-03-02T08:48:12;7.70;82.90
14585;DHT22;7379;51.506;11.876;2024-03-02T08:50:41;7.70;82.90
14585;DHT22;7379;51.506;11.876;2024-03-02T08:53:07;7.70;83.10
14585;DHT22;7379;51.506;11.876;2024-03-02T08:55:34;7.70;83.00
14585;DHT22;7379;51.506;11.876;2024-03-02T08:58:01;7.70;82.90
14585;DHT22;7379;51.506;11.876;2024-03-02T09:00:28;7.70;83.00
14585;DHT22;7379;51.506;11.876;2024-03-02T09:02:54;7.70;83.00
14585;DHT22;7379;51.506;11.876;2024-03-02T09:05:21;7.80;83.30
14585;DHT22;7379;51.506;11.876;2024-03-02T09:07:49;7.80;83.40
14585;DHT22;7379;51.506;11.876;2024-03-02T09:10:16;7.80;83.40
14585;DHT22;7379;51.506;11.876;2024-03-02T09:12:43;7.80;83.10
14585;DHT22;7379;51.506;11.876;2024-03-02T09:15:09;7.80;83.00
14585;DHT22;7379;51.506;11.876;2024-03-02T09:17:36;7.80;83.00
14585;DHT22;7379;51.506;11.876;2024-03-02T09:20:04;7.90;83.10
14585;DHT22;7379;51.506;11.876;2024-03-02T09:22:30;7.90;83.10
14585;DHT22;7379;51.506;11.876;2024-03-02T09:24:59;7.90;83.20
14585;DHT22;7379;51.506;11.876;2024-03-02T09:27:25;7.90;83.00
14585;DHT22;7379;51.506;11.876;2024-03-02T09:29:52;7.90;83.30
14585;DHT22;7379;51.506;11.876;2024-03-02T09:32:19;7.90;83.10
14585;DHT22;7379;51.506;11.876;2024-03-02T09:34:45;8.00;83.20
14585;DHT22;7379;51.506;11.876;2024-03-02T09:37:13;8.00;83.30
14585;DHT22;7379;51.506;11.876;2024-03-02T09:39:40;8.10;83.20
14585;DHT22;7379;51.506;11.876;2024-03-02T09:42:11;8.10;83.60
14585;DHT22;7379;51.506;11.876;2024-03-02T09:44:39;8.10;83.40
14585;DHT22;7379;51.506;11.876;2024-03-02T09:47:07;8.10;83.40
14585;DHT22;7379;51.506;11.876;2024-03-02T09:49:34;8.10;83.60
14585;DHT22;7379;51.506;11.876;2024-03-02T09:52:03;8.10;83.70
14585;DHT22;7379;51.506;11.876;2024-03-02T09:54:31;8.10;83.80
14585;DHT22;7379;51.506;11.876;2024-03-02T09:56:58;8.20;84.00
14585;DHT22;7379;51.506;11.876;2024-03-02T09:59:28;8.20;84.00
14585;DHT22;7379;51.506;11.876;2024-03-02T10:01:59;8.20;83.60
14585;DHT22;7379;51.506;11.876;2024-03-02T10:04:26;8.30;83.80
14585;DHT22;7379;51.506;11.876;2024-03-02T10:07:12;8.30;83.80
14585;DHT22;7379;51.506;11.876;2024-03-02T10:09:39;8.30;83.60
14585;DHT22;7379;51.506;11.876;2024-03-02T10:12:08;8.30;83.70
14585;DHT22;7379;51.506;11.876;2024-03-02T10:14:36;8.30;83.50
14585;DHT22;7379;51.506;11.876;2024-03-02T10:17:03;8.40;83.90
14585;DHT22;7379;51.506;11.876;2024-03-02T10:19:31;8.40;83.80
14585;DHT22;7379;51.506;11.876;2024-03-02T10:21:59;8.40;83.80
14585;DHT22;7379;51.506;11.876;2024-03-02T10:24:26;8.50;83.90
14585;DHT22;7379;51.506;11.876;2024-03-02T10:26:53;8.40;83.40
14585;DHT22;7379;51.506;11.876;2024-03-02T10:29:22;8.50;83.40
14585;DHT22;7379;51.506;11.876;2024-03-02T10:31:50;8.50;83.40
14585;DHT22;7379;51.506;11.876;2024-03-02T10:34:16;8.50;83.70
14585;DHT22;7379;51.506;11.876;2024-03-02T10:36:44;8.40;83.70
14585;DHT22;7379;51.506;11.876;2024-03-02T10:39:13;8.50;83.80
14585;DHT22;7379;51.506;11.876;2024-03-02T10:41:40;8.50;84.00
14585;DHT22;7379;51.506;11.876;2024-03-02T10:44:08;8.50;83.80
14585;DHT22;7379;51.506;11.876;2024-03-02T10:46:36;8.60;84.20
14585;DHT22;7379;51.506;11.876;2024-03-02T10:49:05;8.60;83.70
14585;DHT22;7379;51.506;11.876;2024-03-02T10:51:33;8.60;83.90
14585;DHT22;7379;51.506;11.876;2024-03-02T10:54:03;8.60;83.90
14585;DHT22;7379;51.506;11.876;2024-03-02T10:56:31;8.60;84.10
14585;DHT22;7379;51.506;11.876;2024-03-02T10:59:03;8.60;84.20
14585;DHT22;7379;51.506;11.876;2024-03-02T11:01:32;8.70;84.00
14585;DHT22;7379;51.506;11.876;2024-03-02T11:04:01;8.80;83.90
14585;DHT22;7379;51.506;11.876;2024-03-02T11:06:30;8.80;83.70
14585;DHT22;7379;51.506;11.876;2024-03-02T11:09:02;8.70;83.60
14585;DHT22;7379;51.506;11.876;2024-03-02T11:11:32;8.80;84.00
14585;DHT22;7379;51.506;11.876;2024-03-02T11:14:04;8.80;83.80
14585;DHT22;7379;51.506;11.876;2024-03-02T11:16:35;8.90;84.00
14585;DHT22;7379;51.506;11.876;2024-03-02T11:19:04;8.90;84.00
14585;DHT22;7379;51.506;11.876;2024-03-02T11:21:34;9.00;83.80
14585;DHT22;7379;51.506;11.876;2024-03-02T11:24:32;9.00;83.40
14585;DHT22;7379;51.506;11.876;2024-03-02T11:27:00;9.10;83.40
14585;DHT22;7379;51.506;11.876;2024-03-02T11:29:43;9.10;83.00
14585;DHT22;7379;51.506;11.876;2024-03-02T11:32:17;9.00;83.10
14585;DHT22;7379;51.506;11.876;2024-03-02T11:34:46;9.10;83.30
14585;DHT22;7379;51.506;11.876;2024-03-02T11:37:15;9.10;83.30
14585;DHT22;7379;51.506;11.876;2024-03-02T11:39:45;9.20;83.20
14585;DHT22;7379;51.506;11.876;2024-03-02T11:42:12;9.20;82.80
14585;DHT22;7379;51.506;11.876;2024-03-02T11:44:42;9.20;83.10
14585;DHT22;7379;51.506;11.876;2024-03-02T11:47:11;9.20;82.90
14585;DHT22;7379;51.506;11.876;2024-03-02T11:49:41;9.40;83.10
14585;DHT22;7379;51.506;11.876;2024-03-02T11:52:09;9.40;83.40
14585;DHT22;7379;51.506;11.876;2024-03-02T11:54:38;9.40;82.40
14585;DHT22;7379;51.506;11.876;2024-03-02T11:57:07;9.30;82.40
14585;DHT22;7379;51.506;11.876;2024-03-02T11:59:34;9.30;82.60
14585;DHT22;7379;51.506;11.876;2024-03-02T12:02:02;9.40;82.70
14585;DHT22;7379;51.506;11.876;2024-03-02T12:04:29;9.40;82.50
14585;DHT22;7379;51.506;11.876;2024-03-02T12:06:57;9.40;82.60
14585;DHT22;7379;51.506;11.876;2024-03-02T12:09:26;9.40;83.30
14585;DHT22;7379;51.506;11.876;2024-03-02T12:12:08;9.40;82.60
14585;DHT22;7379;51.506;11.876;2024-03-02T12:14:36;9.50;83.20
14585;DHT22;7379;51.506;11.876;2024-03-02T12:17:03;9.50;82.60
14585;DHT22;7379;51.506;11.876;2024-03-02T12:19:31;9.60;82.90
14585;DHT22;7379;51.506;11.876;2024-03-02T12:21:58;9.60;82.60
14585;DHT22;7379;51.506;11.876;2024-03-02T12:24:27;9.60;82.80
14585;DHT22;7379;51.506;11.876;2024-03-02T12:26:55;9.60;82.60
14585;DHT22;7379;51.506;11.876;2024-03-02T12:29:24;9.60;82.60
14585;DHT22;7379;51.506;11.876;2024-03-02T12:31:51;9.60;82.60
14585;DHT22;7379;51.506;11.876;2024-03-02T12:34:19;9.60;82.70
14585;DHT22;7379;51.506;11.876;2024-03-02T12:36:46;9.70;82.90
14585;DHT22;7379;51.506;11.876;2024-03-02T12:39:15;9.80;82.20
14585;DHT22;7379;51.506;11.876;2024-03-02T12:41:42;10.00;80.80
14585;DHT22;7379;51.506;11.876;2024-03-02T12:44:09;10.00;80.60
14585;DHT22;7379;51.506;11.876;2024-03-02T12:46:37;10.00;80.50
14585;DHT22;7379;51.506;11.876;2024-03-02T12:49:09;10.00;80.20
14585;DHT22;7379;51.506;11.876;2024-03-02T12:51:37;10.00;80.40
14585;DHT22;7379;51.506;11.876;2024-03-02T12:54:06;10.00;80.60
14585;DHT22;7379;51.506;11.876;2024-03-02T12:56:32;10.20;80.10
14585;DHT22;7379;51.506;11.876;2024-03-02T12:58:59;10.30;79.90
14585;DHT22;7379;51.506;11.876;2024-03-02T13:01:26;10.30;79.40
14585;DHT22;7379;51.506;11.876;2024-03-02T13:03:54;10.20;79.40
14585;DHT22;7379;51.506;11.876;2024-03-02T13:06:23;10.20;79.80
14585;DHT22;7379;51.506;11.876;2024-03-02T13:08:50;10.10;79.80
14585;DHT22;7379;51.506;11.876;2024-03-02T13:11:16;10.10;79.90
14585;DHT22;7379;51.506;11.876;2024-03-02T13:13:43;10.20;79.30
14585;DHT22;7379;51.506;11.876;2024-03-02T13:16:11;10.30;79.60
14585;DHT22;7379;51.506;11.876;2024-03-02T13:18:38;10.30;79.20
14585;DHT22;7379;51.506;11.876;2024-03-02T13:21:07;10.20;79.30
14585;DHT22;7379;51.506;11.876;2024-03-02T13:23:34;10.20;79.30
14585;DHT22;7379;51.506;11.876;2024-03-02T13:26:01;10.30;79.30
14585;DHT22;7379;51.506;11.876;2024-03-02T13:28:28;10.30;79.20
14585;DHT22;7379;51.506;11.876;2024-03-02T13:30:55;10.20;79.20
14585;DHT22;7379;51.506;11.876;2024-03-02T13:33:21;10.30;79.20
14585;DHT22;7379;51.506;11.876;2024-03-02T13:35:49;10.20;79.40
14585;DHT22;7379;51.506;11.876;2024-03-02T13:38:18;10.20;79.60
14585;DHT22;7379;51.506;11.876;2024-03-02T13:40:45;10.20;79.70
14585;DHT22;7379;51.506;11.876;2024-03-02T13:43:12;10.20;79.60
14585;DHT22;7379;51.506;11.876;2024-03-02T13:45:39;10.20;79.90
14585;DHT22;7379;51.506;11.876;2024-03-02T13:48:07;10.20;79.70
14585;DHT22;7379;51.506;11.876;2024-03-02T13:50:33;10.20;80.20
14585;DHT22;7379;51.506;11.876;2024-03-02T13:53:00;10.20;79.50
14585;DHT22;7379;51.506;11.876;2024-03-02T13:55:29;10.30;79.70
14585;DHT22;7379;51.506;11.876;2024-03-02T13:57:57;10.30;79.30
14585;DHT22;7379;51.506;11.876;2024-03-02T14:00:23;10.30;78.90
14585;DHT22;7379;51.506;11.876;2024-03-02T14:02:50;10.40;79.30
14585;DHT22;7379;51.506;11.876;2024-03-02T14:05:16;10.40;79.20
14585;DHT22;7379;51.506;11.876;2024-03-02T14:07:44;10.50;78.80
14585;DHT22;7379;51.506;11.876;2024-03-02T14:10:11;10.60;78.60
14585;DHT22;7379;51.506;11.876;2024-03-02T14:12:41;10.60;78.30
14585;DHT22;7379;51.506;11.876;2024-03-02T14:15:08;10.60;78.00
14585;DHT22;7379;51.506;11.876;2024-03-02T14:17:35;10.60;77.90
14585;DHT22;7379;51.506;11.876;2024-03-02T14:20:02;10.60;78.20
14585;DHT22;7379;51.506;11.876;2024-03-02T14:22:30;10.80;77.70
14585;DHT22;7379;51.506;11.876;2024-03-02T14:24:57;10.80;77.70
14585;DHT22;7379;51.506;11.876;2024-03-02T14:27:23;10.80;77.60
14585;DHT22;7379;51.506;11.876;2024-03-02T14:29:52;10.80;77.50
14585;DHT22;7379;51.506;11.876;2024-03-02T14:32:19;10.80;77.40
14585;DHT22;7379;51.506;11.876;2024-03-02T14:34:45;10.90;77.20
14585;DHT22;7379;51.506;11.876;2024-03-02T14:37:13;10.90;76.90
14585;DHT22;7379;51.506;11.876;2024-03-02T14:39:39;10.90;76.90
14585;DHT22;7379;51.506;11.876;2024-03-02T14:42:06;11.00;76.20
14585;DHT22;7379;51.506;11.876;2024-03-02T14:44:33;11.00;76.40
14585;DHT22;7379;51.506;11.876;2024-03-02T14:47:02;11.00;76.30
14585;DHT22;7379;51.506;11.876;2024-03-02T14:49:29;11.00;76.40
14585;DHT22;7379;51.506;11.876;2024-03-02T14:51:56;11.00;76.50
14585;DHT22;7379;51.506;11.876;2024-03-02T14:54:23;11.00;76.40
14585;DHT22;7379;51.506;11.876;2024-03-02T14:56:50;11.00;76.50
14585;DHT22;7379;51.506;11.876;2024-03-02T14:59:17;11.20;76.40
14585;DHT22;7379;51.506;11.876;2024-03-02T15:01:44;11.20;76.10
14585;DHT22;7379;51.506;11.876;2024-03-02T15:04:13;11.20;75.90
14585;DHT22;7379;51.506;11.876;2024-03-02T15:06:41;11.20;75.90
14585;DHT22;7379;51.506;11.876;2024-03-02T15:09:08;11.30;75.70
14585;DHT22;7379;51.506;11.876;2024-03-02T15:11:35;11.30;75.70
14585;DHT22;7379;51.506;11.876;2024-03-02T15:14:02;11.30;75.70
14585;DHT22;7379;51.506;11.876;2024-03-02T15:16:28;11.30;75.70
14585;DHT22;7379;51.506;11.876;2024-03-02T15:18:55;11.30;75.70
14585;DHT22;7379;51.506;11.876;2024-03-02T15:21:23;11.30;75.70
14585;DHT22;7379;51.506;11.876;2024-03-02T15:23:50;11.40;75.60
14585;DHT22;7379;51.506;11.876;2024-03-02T15:26:17;11.40;75.50
14585;DHT22;7379;51.506;11.876;2024-03-02T15:28:43;11.40;75.20
14585;DHT22;7379;51.506;11.876;2024-03-02T15:31:10;11.50;75.10
14585;DHT22;7379;51.506;11.876;2024-03-02T15:33:37;11.50;75.00
14585;DHT22;7379;51.506;11.876;2024-03-02T15:36:04;11.50;75.10
14585;DHT22;7379;51.506;11.876;2024-03-02T15:38:33;11.40;75.10
14585;DHT22;7379;51.506;11.876;2024-03-02T15:41:02;11.40;75.30
14585;DHT22;7379;51.506;11.876;2024-03-02T15:43:29;11.30;75.40
14585;DHT22;7379;51.506;11.876;2024-03-02T15:45:56;11.30;75.30